SPHO/AYP METAR and TAF weather

Enter ICAO airport designator
Station Type Date Time Source
SPHO METAR 2020/10/21 21:00 UTC NOAA

SPHO 212100Z 20011KT 9999 FEW040 FEW050TCU SCT080 18/09 Q1025 RMK PP000


Station Type Date Time Source
SPHO Decoded METAR 2020/10/21 21:00 UTC NOAA

Ayacucho, Peru (SPHO) 13-08S 074-13W 2749M
Oct 21, 2020 - 05:00 PM EDT / 2020.10.21 2100 UTC
Wind: from the SSW (200 degrees) at 13 MPH (11 KT):0
Visibility: greater than 7 mile(s):0
Sky conditions: partly cloudy
Weather: Towering cumulus clouds observed
Temperature: 64 F (18 C)
Dew Point: 48 F (9 C)
Relative Humidity: 55%
Pressure (altimeter): 30.27 in. Hg (1025 hPa)
ob: SPHO 212100Z 20011KT 9999 FEW040 FEW050TCU SCT080 18/09 Q1025 RMK PP000
cycle: 21

Station Type Date Time Source
SPHO TAF 2020/10/22 18:06 UTC NOAA

TAF TAF
AMD SPHO 212300Z 2118/2218 CNL

Example: see airport list